sensor_id;sensor_type;location;lat;lon;timestamp;P1;durP1;ratioP1;P2;durP2;ratioP2
50932;SDS011;36921;49.006;9.292;2023-05-10T00:02:24;3.13;;;0.68;;
50932;SDS011;36921;49.006;9.292;2023-05-10T00:04:50;0.88;;;0.70;;
50932;SDS011;36921;49.006;9.292;2023-05-10T00:07:15;3.00;;;0.75;;
50932;SDS011;36921;49.006;9.292;2023-05-10T00:09:42;1.13;;;0.75;;
50932;SDS011;36921;49.006;9.292;2023-05-10T00:12:07;1.70;;;0.90;;
50932;SDS011;36921;49.006;9.292;2023-05-10T00:14:33;3.75;;;0.90;;
50932;SDS011;36921;49.006;9.292;2023-05-10T00:16:58;1.05;;;0.50;;
50932;SDS011;36921;49.006;9.292;2023-05-10T00:19:23;2.92;;;0.65;;
50932;SDS011;36921;49.006;9.292;2023-05-10T00:21:49;1.55;;;0.52;;
50932;SDS011;36921;49.006;9.292;2023-05-10T00:24:14;2.08;;;0.30;;
50932;SDS011;36921;49.006;9.292;2023-05-10T00:26:39;1.05;;;0.50;;
50932;SDS011;36921;49.006;9.292;2023-05-10T00:29:05;0.47;;;0.40;;
50932;SDS011;36921;49.006;9.292;2023-05-10T00:31:31;0.98;;;0.55;;
50932;SDS011;36921;49.006;9.292;2023-05-10T00:33:56;1.33;;;0.52;;
50932;SDS011;36921;49.006;9.292;2023-05-10T00:36:21;0.93;;;0.50;;
50932;SDS011;36921;49.006;9.292;2023-05-10T00:38:46;1.23;;;0.60;;
50932;SDS011;36921;49.006;9.292;2023-05-10T00:41:12;0.68;;;0.52;;
50932;SDS011;36921;49.006;9.292;2023-05-10T00:43:37;2.95;;;0.60;;
50932;SDS011;36921;49.006;9.292;2023-05-10T00:46:03;1.67;;;0.80;;
50932;SDS011;36921;49.006;9.292;2023-05-10T00:48:29;3.13;;;0.50;;
50932;SDS011;36921;49.006;9.292;2023-05-10T00:50:54;1.90;;;0.63;;
50932;SDS011;36921;49.006;9.292;2023-05-10T00:53:20;1.20;;;0.68;;
50932;SDS011;36921;49.006;9.292;2023-05-10T00:55:46;0.90;;;0.73;;
50932;SDS011;36921;49.006;9.292;2023-05-10T00:58:11;0.65;;;0.63;;
50932;SDS011;36921;49.006;9.292;2023-05-10T01:00:37;1.17;;;0.60;;
50932;SDS011;36921;49.006;9.292;2023-05-10T01:03:03;1.38;;;0.60;;
50932;SDS011;36921;49.006;9.292;2023-05-10T01:05:28;0.80;;;0.60;;
50932;SDS011;36921;49.006;9.292;2023-05-10T01:07:54;1.10;;;0.65;;
50932;SDS011;36921;49.006;9.292;2023-05-10T01:10:19;0.90;;;0.65;;
50932;SDS011;36921;49.006;9.292;2023-05-10T01:12:45;0.70;;;0.60;;
50932;SDS011;36921;49.006;9.292;2023-05-10T01:15:12;1.40;;;0.80;;
50932;SDS011;36921;49.006;9.292;2023-05-10T01:17:38;1.20;;;1.00;;
50932;SDS011;36921;49.006;9.292;2023-05-10T01:20:07;1.38;;;0.88;;
50932;SDS011;36921;49.006;9.292;2023-05-10T01:28:17;1.17;;;0.77;;
50932;SDS011;36921;49.006;9.292;2023-05-10T01:33:55;1.10;;;0.75;;
50932;SDS011;36921;49.006;9.292;2023-05-10T01:39:15;1.30;;;0.93;;
50932;SDS011;36921;49.006;9.292;2023-05-10T01:46:58;1.45;;;1.10;;
50932;SDS011;36921;49.006;9.292;2023-05-10T01:49:31;1.35;;;0.90;;
50932;SDS011;36921;49.006;9.292;2023-05-10T01:52:00;1.38;;;1.20;;
50932;SDS011;36921;49.006;9.292;2023-05-10T01:54:41;1.30;;;1.00;;
50932;SDS011;36921;49.006;9.292;2023-05-10T01:57:15;1.95;;;1.20;;
50932;SDS011;36921;49.006;9.292;2023-05-10T01:59:43;1.60;;;1.30;;
50932;SDS011;36921;49.006;9.292;2023-05-10T02:02:10;2.08;;;1.27;;
50932;SDS011;36921;49.006;9.292;2023-05-10T02:04:38;1.40;;;1.25;;
50932;SDS011;36921;49.006;9.292;2023-05-10T02:07:05;1.60;;;1.25;;
50932;SDS011;36921;49.006;9.292;2023-05-10T02:09:32;4.70;;;1.25;;
50932;SDS011;36921;49.006;9.292;2023-05-10T02:11:59;1.48;;;1.23;;
50932;SDS011;36921;49.006;9.292;2023-05-10T02:14:27;4.80;;;1.38;;
50932;SDS011;36921;49.006;9.292;2023-05-10T02:16:55;2.35;;;1.52;;
50932;SDS011;36921;49.006;9.292;2023-05-10T02:19:21;2.50;;;1.40;;
50932;SDS011;36921;49.006;9.292;2023-05-10T02:21:48;1.98;;;1.58;;
50932;SDS011;36921;49.006;9.292;2023-05-10T02:24:16;2.13;;;1.52;;
50932;SDS011;36921;49.006;9.292;2023-05-10T02:26:42;6.18;;;1.50;;
50932;SDS011;36921;49.006;9.292;2023-05-10T02:29:10;2.40;;;1.40;;
50932;SDS011;36921;49.006;9.292;2023-05-10T02:31:37;3.65;;;1.52;;
50932;SDS011;36921;49.006;9.292;2023-05-10T02:34:04;3.13;;;2.05;;
50932;SDS011;36921;49.006;9.292;2023-05-10T02:36:33;4.20;;;1.92;;
50932;SDS011;36921;49.006;9.292;2023-05-10T02:38:59;4.32;;;1.52;;
50932;SDS011;36921;49.006;9.292;2023-05-10T02:41:26;2.75;;;1.92;;
50932;SDS011;36921;49.006;9.292;2023-05-10T02:43:53;5.72;;;2.00;;
50932;SDS011;36921;49.006;9.292;2023-05-10T02:46:22;4.40;;;1.85;;
50932;SDS011;36921;49.006;9.292;2023-05-10T02:48:48;3.95;;;1.90;;
50932;SDS011;36921;49.006;9.292;2023-05-10T02:51:13;3.30;;;2.05;;
50932;SDS011;36921;49.006;9.292;2023-05-10T02:56:12;2.70;;;1.77;;
50932;SDS011;36921;49.006;9.292;2023-05-10T02:58:42;3.85;;;2.10;;
50932;SDS011;36921;49.006;9.292;2023-05-10T03:01:08;2.13;;;1.80;;
50932;SDS011;36921;49.006;9.292;2023-05-10T03:03:33;1.88;;;1.42;;
50932;SDS011;36921;49.006;9.292;2023-05-10T03:05:59;2.95;;;1.92;;
50932;SDS011;36921;49.006;9.292;2023-05-10T03:08:24;2.15;;;1.80;;
50932;SDS011;36921;49.006;9.292;2023-05-10T03:11:01;2.70;;;1.90;;
50932;SDS011;36921;49.006;9.292;2023-05-10T03:16:41;3.00;;;1.90;;
50932;SDS011;36921;49.006;9.292;2023-05-10T03:19:15;2.80;;;1.92;;
50932;SDS011;36921;49.006;9.292;2023-05-10T03:21:44;3.08;;;2.22;;
50932;SDS011;36921;49.006;9.292;2023-05-10T03:24:14;2.47;;;1.90;;
50932;SDS011;36921;49.006;9.292;2023-05-10T03:26:41;4.05;;;2.13;;
50932;SDS011;36921;49.006;9.292;2023-05-10T03:29:10;3.27;;;2.30;;
50932;SDS011;36921;49.006;9.292;2023-05-10T03:31:38;4.97;;;2.67;;
50932;SDS011;36921;49.006;9.292;2023-05-10T03:34:04;6.95;;;2.95;;
50932;SDS011;36921;49.006;9.292;2023-05-10T03:36:29;4.43;;;2.60;;
50932;SDS011;36921;49.006;9.292;2023-05-10T03:38:54;3.65;;;2.58;;
50932;SDS011;36921;49.006;9.292;2023-05-10T03:41:20;6.18;;;2.70;;
50932;SDS011;36921;49.006;9.292;2023-05-10T03:43:46;4.97;;;2.90;;
50932;SDS011;36921;49.006;9.292;2023-05-10T03:46:11;6.10;;;3.58;;
50932;SDS011;36921;49.006;9.292;2023-05-10T03:48:36;5.05;;;3.30;;
50932;SDS011;36921;49.006;9.292;2023-05-10T03:51:02;6.57;;;3.15;;
50932;SDS011;36921;49.006;9.292;2023-05-10T03:53:27;4.72;;;3.25;;
50932;SDS011;36921;49.006;9.292;2023-05-10T03:55:52;5.50;;;3.50;;
50932;SDS011;36921;49.006;9.292;2023-05-10T03:58:18;5.13;;;3.25;;
50932;SDS011;36921;49.006;9.292;2023-05-10T04:00:43;7.25;;;3.15;;
50932;SDS011;36921;49.006;9.292;2023-05-10T04:03:10;5.45;;;3.47;;
50932;SDS011;36921;49.006;9.292;2023-05-10T04:05:36;6.57;;;3.60;;
50932;SDS011;36921;49.006;9.292;2023-05-10T04:08:02;7.32;;;4.10;;
50932;SDS011;36921;49.006;9.292;2023-05-10T04:10:27;7.57;;;4.30;;
50932;SDS011;36921;49.006;9.292;2023-05-10T04:15:35;7.57;;;4.35;;
50932;SDS011;36921;49.006;9.292;2023-05-10T04:18:00;7.32;;;4.68;;
50932;SDS011;36921;49.006;9.292;2023-05-10T04:20:26;8.98;;;4.90;;
50932;SDS011;36921;49.006;9.292;2023-05-10T04:22:51;9.40;;;5.15;;
50932;SDS011;36921;49.006;9.292;2023-05-10T04:25:17;10.05;;;5.70;;
50932;SDS011;36921;49.006;9.292;2023-05-10T04:27:42;9.38;;;5.85;;
50932;SDS011;36921;49.006;9.292;2023-05-10T04:30:08;8.63;;;5.45;;
50932;SDS011;36921;49.006;9.292;2023-05-10T04:32:33;8.68;;;5.15;;
50932;SDS011;36921;49.006;9.292;2023-05-10T04:34:59;8.45;;;5.25;;
50932;SDS011;36921;49.006;9.292;2023-05-10T04:37:24;9.10;;;5.20;;
50932;SDS011;36921;49.006;9.292;2023-05-10T04:39:50;8.52;;;4.60;;
50932;SDS011;36921;49.006;9.292;2023-05-10T04:42:15;6.40;;;4.55;;
50932;SDS011;36921;49.006;9.292;2023-05-10T04:44:40;7.82;;;4.38;;
50932;SDS011;36921;49.006;9.292;2023-05-10T04:47:06;5.40;;;4.22;;
50932;SDS011;36921;49.006;9.292;2023-05-10T04:49:31;7.70;;;4.57;;
50932;SDS011;36921;49.006;9.292;2023-05-10T04:51:57;11.50;;;4.97;;
50932;SDS011;36921;49.006;9.292;2023-05-10T04:54:22;7.78;;;4.38;;
50932;SDS011;36921;49.006;9.292;2023-05-10T04:56:48;6.13;;;4.03;;
50932;SDS011;36921;49.006;9.292;2023-05-10T04:59:13;8.25;;;4.68;;
50932;SDS011;36921;49.006;9.292;2023-05-10T05:01:39;6.60;;;4.70;;
50932;SDS011;36921;49.006;9.292;2023-05-10T05:04:04;8.13;;;4.10;;
50932;SDS011;36921;49.006;9.292;2023-05-10T05:06:30;5.57;;;3.97;;
50932;SDS011;36921;49.006;9.292;2023-05-10T05:08:55;8.98;;;3.78;;
50932;SDS011;36921;49.006;9.292;2023-05-10T05:11:21;5.63;;;3.30;;
50932;SDS011;36921;49.006;9.292;2023-05-10T05:13:46;4.82;;;3.45;;
50932;SDS011;36921;49.006;9.292;2023-05-10T05:16:11;6.07;;;3.30;;
50932;SDS011;36921;49.006;9.292;2023-05-10T05:18:37;5.28;;;3.03;;
50932;SDS011;36921;49.006;9.292;2023-05-10T05:21:03;6.97;;;2.90;;
50932;SDS011;36921;49.006;9.292;2023-05-10T05:23:28;7.63;;;3.58;;
50932;SDS011;36921;49.006;9.292;2023-05-10T05:25:53;7.15;;;2.85;;
50932;SDS011;36921;49.006;9.292;2023-05-10T05:28:20;6.50;;;3.45;;
50932;SDS011;36921;49.006;9.292;2023-05-10T05:30:46;4.95;;;2.90;;
50932;SDS011;36921;49.006;9.292;2023-05-10T05:33:13;5.90;;;2.67;;
50932;SDS011;36921;49.006;9.292;2023-05-10T05:35:38;5.32;;;2.38;;
50932;SDS011;36921;49.006;9.292;2023-05-10T05:38:04;4.38;;;2.55;;
50932;SDS011;36921;49.006;9.292;2023-05-10T05:40:29;4.93;;;2.42;;
50932;SDS011;36921;49.006;9.292;2023-05-10T05:42:55;4.20;;;2.47;;
50932;SDS011;36921;49.006;9.292;2023-05-10T05:45:20;2.85;;;1.95;;
50932;SDS011;36921;49.006;9.292;2023-05-10T05:47:46;5.03;;;2.50;;
50932;SDS011;36921;49.006;9.292;2023-05-10T05:50:11;3.25;;;2.50;;
50932;SDS011;36921;49.006;9.292;2023-05-10T05:52:37;5.93;;;3.03;;
50932;SDS011;36921;49.006;9.292;2023-05-10T05:55:02;2.72;;;2.33;;
50932;SDS011;36921;49.006;9.292;2023-05-10T05:57:28;3.90;;;2.05;;
50932;SDS011;36921;49.006;9.292;2023-05-10T05:59:54;3.63;;;2.75;;
50932;SDS011;36921;49.006;9.292;2023-05-10T06:02:19;7.72;;;2.20;;
50932;SDS011;36921;49.006;9.292;2023-05-10T06:04:44;2.22;;;1.85;;
50932;SDS011;36921;49.006;9.292;2023-05-10T06:07:10;4.95;;;2.03;;
50932;SDS011;36921;49.006;9.292;2023-05-10T06:09:35;3.08;;;2.08;;
50932;SDS011;36921;49.006;9.292;2023-05-10T06:12:00;3.75;;;2.08;;
50932;SDS011;36921;49.006;9.292;2023-05-10T06:14:26;3.17;;;2.20;;
50932;SDS011;36921;49.006;9.292;2023-05-10T06:16:52;2.78;;;1.80;;
50932;SDS011;36921;49.006;9.292;2023-05-10T06:19:18;4.18;;;1.88;;
50932;SDS011;36921;49.006;9.292;2023-05-10T06:21:43;5.68;;;1.92;;
50932;SDS011;36921;49.006;9.292;2023-05-10T06:24:09;3.67;;;1.83;;
50932;SDS011;36921;49.006;9.292;2023-05-10T06:26:35;3.80;;;1.80;;
50932;SDS011;36921;49.006;9.292;2023-05-10T06:29:01;2.92;;;2.10;;
50932;SDS011;36921;49.006;9.292;2023-05-10T06:31:26;4.88;;;1.85;;
50932;SDS011;36921;49.006;9.292;2023-05-10T06:33:51;3.75;;;2.00;;
50932;SDS011;36921;49.006;9.292;2023-05-10T06:36:17;3.25;;;2.03;;
50932;SDS011;36921;49.006;9.292;2023-05-10T06:38:43;2.58;;;2.33;;
50932;SDS011;36921;49.006;9.292;2023-05-10T06:41:09;4.22;;;1.98;;
50932;SDS011;36921;49.006;9.292;2023-05-10T06:43:34;2.88;;;2.13;;
50932;SDS011;36921;49.006;9.292;2023-05-10T06:46:01;3.45;;;1.90;;
50932;SDS011;36921;49.006;9.292;2023-05-10T06:48:26;4.28;;;1.90;;
50932;SDS011;36921;49.006;9.292;2023-05-10T06:50:52;5.75;;;1.98;;
50932;SDS011;36921;49.006;9.292;2023-05-10T06:53:17;4.55;;;1.58;;
50932;SDS011;36921;49.006;9.292;2023-05-10T06:55:42;2.67;;;1.65;;
50932;SDS011;36921;49.006;9.292;2023-05-10T06:58:08;2.33;;;1.50;;
50932;SDS011;36921;49.006;9.292;2023-05-10T07:00:33;2.58;;;1.52;;
50932;SDS011;36921;49.006;9.292;2023-05-10T07:02:59;3.50;;;1.58;;
50932;SDS011;36921;49.006;9.292;2023-05-10T07:05:24;7.78;;;1.70;;
50932;SDS011;36921;49.006;9.292;2023-05-10T07:07:50;3.03;;;1.45;;
50932;SDS011;36921;49.006;9.292;2023-05-10T07:10:16;3.75;;;1.50;;
50932;SDS011;36921;49.006;9.292;2023-05-10T07:12:42;2.35;;;1.38;;
50932;SDS011;36921;49.006;9.292;2023-05-10T07:15:08;2.83;;;1.10;;
50932;SDS011;36921;49.006;9.292;2023-05-10T07:17:34;1.40;;;1.17;;
50932;SDS011;36921;49.006;9.292;2023-05-10T07:20:00;1.98;;;1.52;;
50932;SDS011;36921;49.006;9.292;2023-05-10T07:22:26;4.70;;;1.40;;
50932;SDS011;36921;49.006;9.292;2023-05-10T07:24:51;1.85;;;1.23;;
50932;SDS011;36921;49.006;9.292;2023-05-10T07:27:17;1.88;;;1.20;;
50932;SDS011;36921;49.006;9.292;2023-05-10T07:29:43;2.63;;;1.15;;
50932;SDS011;36921;49.006;9.292;2023-05-10T07:32:08;1.30;;;1.10;;
50932;SDS011;36921;49.006;9.292;2023-05-10T07:34:33;4.55;;;1.40;;
50932;SDS011;36921;49.006;9.292;2023-05-10T07:36:59;2.13;;;1.20;;
50932;SDS011;36921;49.006;9.292;2023-05-10T07:39:25;2.80;;;1.10;;
50932;SDS011;36921;49.006;9.292;2023-05-10T07:41:54;4.20;;;1.35;;
50932;SDS011;36921;49.006;9.292;2023-05-10T07:44:20;2.00;;;1.08;;
50932;SDS011;36921;49.006;9.292;2023-05-10T07:46:45;7.68;;;1.10;;
50932;SDS011;36921;49.006;9.292;2023-05-10T07:49:11;1.27;;;0.90;;
50932;SDS011;36921;49.006;9.292;2023-05-10T07:51:36;1.10;;;0.80;;
50932;SDS011;36921;49.006;9.292;2023-05-10T07:54:04;1.05;;;0.90;;
50932;SDS011;36921;49.006;9.292;2023-05-10T07:56:30;2.03;;;1.00;;
50932;SDS011;36921;49.006;9.292;2023-05-10T07:58:56;4.38;;;1.08;;
50932;SDS011;36921;49.006;9.292;2023-05-10T08:01:23;4.03;;;0.70;;
50932;SDS011;36921;49.006;9.292;2023-05-10T08:03:48;0.80;;;0.73;;
50932;SDS011;36921;49.006;9.292;2023-05-10T08:06:16;2.08;;;0.70;;
50932;SDS011;36921;49.006;9.292;2023-05-10T08:08:42;1.40;;;0.82;;
50932;SDS011;36921;49.006;9.292;2023-05-10T08:11:07;0.70;;;0.50;;
50932;SDS011;36921;49.006;9.292;2023-05-10T08:13:33;1.15;;;0.57;;
50932;SDS011;36921;49.006;9.292;2023-05-10T08:15:59;3.30;;;0.70;;
50932;SDS011;36921;49.006;9.292;2023-05-10T08:18:24;1.05;;;0.40;;
50932;SDS011;36921;49.006;9.292;2023-05-10T08:20:50;0.95;;;0.50;;
50932;SDS011;36921;49.006;9.292;2023-05-10T08:23:15;0.47;;;0.45;;
50932;SDS011;36921;49.006;9.292;2023-05-10T08:25:40;0.40;;;0.30;;
50932;SDS011;36921;49.006;9.292;2023-05-10T08:28:06;0.35;;;0.30;;
50932;SDS011;36921;49.006;9.292;2023-05-10T08:30:31;1.90;;;0.60;;
50932;SDS011;36921;49.006;9.292;2023-05-10T08:32:57;1.13;;;0.47;;
50932;SDS011;36921;49.006;9.292;2023-05-10T08:35:22;0.35;;;0.30;;
50932;SDS011;36921;49.006;9.292;2023-05-10T08:37:47;1.08;;;0.32;;
50932;SDS011;36921;49.006;9.292;2023-05-10T08:40:13;2.17;;;0.50;;
50932;SDS011;36921;49.006;9.292;2023-05-10T08:42:40;0.50;;;0.40;;
50932;SDS011;36921;49.006;9.292;2023-05-10T08:45:12;0.52;;;0.30;;
50932;SDS011;36921;49.006;9.292;2023-05-10T08:47:38;2.38;;;0.85;;
50932;SDS011;36921;49.006;9.292;2023-05-10T08:50:04;0.30;;;0.25;;
50932;SDS011;36921;49.006;9.292;2023-05-10T08:52:31;2.15;;;0.32;;
50932;SDS011;36921;49.006;9.292;2023-05-10T08:54:58;0.57;;;0.20;;
50932;SDS011;36921;49.006;9.292;2023-05-10T08:57:24;0.13;;;0.13;;
50932;SDS011;36921;49.006;9.292;2023-05-10T08:59:49;2.05;;;0.30;;
50932;SDS011;36921;49.006;9.292;2023-05-10T09:02:15;2.53;;;0.30;;
50932;SDS011;36921;49.006;9.292;2023-05-10T09:04:43;0.57;;;0.25;;
50932;SDS011;36921;49.006;9.292;2023-05-10T09:07:08;1.58;;;0.30;;
50932;SDS011;36921;49.006;9.292;2023-05-10T09:09:33;1.17;;;0.38;;
50932;SDS011;36921;49.006;9.292;2023-05-10T09:12:01;0.57;;;0.30;;
50932;SDS011;36921;49.006;9.292;2023-05-10T09:14:27;0.63;;;0.20;;
50932;SDS011;36921;49.006;9.292;2023-05-10T09:16:52;1.17;;;0.22;;
50932;SDS011;36921;49.006;9.292;2023-05-10T09:19:20;1.05;;;0.32;;
50932;SDS011;36921;49.006;9.292;2023-05-10T09:21:45;0.28;;;0.20;;
50932;SDS011;36921;49.006;9.292;2023-05-10T09:24:11;0.28;;;0.20;;
50932;SDS011;36921;49.006;9.292;2023-05-10T09:26:45;0.80;;;0.40;;
50932;SDS011;36921;49.006;9.292;2023-05-10T09:29:12;1.58;;;0.40;;
50932;SDS011;36921;49.006;9.292;2023-05-10T09:31:48;0.73;;;0.40;;
50932;SDS011;36921;49.006;9.292;2023-05-10T09:34:30;0.20;;;0.20;;
50932;SDS011;36921;49.006;9.292;2023-05-10T09:37:01;1.45;;;0.20;;
50932;SDS011;36921;49.006;9.292;2023-05-10T09:39:38;1.02;;;0.30;;
50932;SDS011;36921;49.006;9.292;2023-05-10T09:42:04;2.13;;;0.52;;
50932;SDS011;36921;49.006;9.292;2023-05-10T09:44:32;1.20;;;0.25;;
50932;SDS011;36921;49.006;9.292;2023-05-10T09:46:59;0.57;;;0.30;;
50932;SDS011;36921;49.006;9.292;2023-05-10T09:49:25;0.77;;;0.20;;
50932;SDS011;36921;49.006;9.292;2023-05-10T09:52:01;0.68;;;0.40;;
50932;SDS011;36921;49.006;9.292;2023-05-10T09:54:27;1.00;;;0.30;;
50932;SDS011;36921;49.006;9.292;2023-05-10T09:56:52;0.50;;;0.30;;
50932;SDS011;36921;49.006;9.292;2023-05-10T09:59:17;3.22;;;0.60;;
50932;SDS011;36921;49.006;9.292;2023-05-10T10:01:44;1.63;;;0.38;;
50932;SDS011;36921;49.006;9.292;2023-05-10T10:04:14;0.77;;;0.40;;
50932;SDS011;36921;49.006;9.292;2023-05-10T10:06:40;0.60;;;0.20;;
50932;SDS011;36921;49.006;9.292;2023-05-10T10:09:06;1.83;;;0.30;;
50932;SDS011;36921;49.006;9.292;2023-05-10T10:11:33;0.98;;;0.40;;
50932;SDS011;36921;49.006;9.292;2023-05-10T10:14:00;1.35;;;0.30;;
50932;SDS011;36921;49.006;9.292;2023-05-10T10:16:26;0.93;;;0.30;;
50932;SDS011;36921;49.006;9.292;2023-05-10T10:18:54;1.38;;;0.38;;
50932;SDS011;36921;49.006;9.292;2023-05-10T10:21:19;2.47;;;0.20;;
50932;SDS011;36921;49.006;9.292;2023-05-10T10:23:46;1.92;;;0.30;;
50932;SDS011;36921;49.006;9.292;2023-05-10T10:26:11;0.65;;;0.30;;
50932;SDS011;36921;49.006;9.292;2023-05-10T10:28:51;0.10;;;0.10;;
50932;SDS011;36921;49.006;9.292;2023-05-10T10:31:26;0.30;;;0.30;;
50932;SDS011;36921;49.006;9.292;2023-05-10T10:36:28;0.38;;;0.30;;
50932;SDS011;36921;49.006;9.292;2023-05-10T10:38:56;3.67;;;0.60;;
50932;SDS011;36921;49.006;9.292;2023-05-10T10:41:31;1.75;;;0.40;;
50932;SDS011;36921;49.006;9.292;2023-05-10T10:47:33;1.02;;;0.28;;
50932;SDS011;36921;49.006;9.292;2023-05-10T10:49:49;4.20;;;0.40;;
50932;SDS011;36921;49.006;9.292;2023-05-10T10:57:51;0.30;;;0.22;;
50932;SDS011;36921;49.006;9.292;2023-05-10T11:02:55;0.70;;;0.20;;
50932;SDS011;36921;49.006;9.292;2023-05-10T11:08:00;1.10;;;0.30;;
50932;SDS011;36921;49.006;9.292;2023-05-10T11:10:32;0.43;;;0.30;;
50932;SDS011;36921;49.006;9.292;2023-05-10T11:13:08;1.58;;;0.40;;
50932;SDS011;36921;49.006;9.292;2023-05-10T11:18:19;0.20;;;0.20;;
50932;SDS011;36921;49.006;9.292;2023-05-10T11:20:51;0.95;;;0.30;;
50932;SDS011;36921;49.006;9.292;2023-05-10T11:23:18;0.22;;;0.15;;
50932;SDS011;36921;49.006;9.292;2023-05-10T11:25:45;0.50;;;0.30;;
50932;SDS011;36921;49.006;9.292;2023-05-10T11:28:11;1.70;;;0.30;;
50932;SDS011;36921;49.006;9.292;2023-05-10T11:30:38;3.13;;;0.20;;
50932;SDS011;36921;49.006;9.292;2023-05-10T11:33:04;1.38;;;0.40;;
50932;SDS011;36921;49.006;9.292;2023-05-10T11:35:30;0.95;;;0.30;;
50932;SDS011;36921;49.006;9.292;2023-05-10T11:37:56;0.32;;;0.30;;
50932;SDS011;36921;49.006;9.292;2023-05-10T11:40:21;0.20;;;0.20;;
50932;SDS011;36921;49.006;9.292;2023-05-10T11:42:50;0.75;;;0.35;;
50932;SDS011;36921;49.006;9.292;2023-05-10T11:45:15;1.08;;;0.40;;
50932;SDS011;36921;49.006;9.292;2023-05-10T11:47:41;1.60;;;0.32;;
50932;SDS011;36921;49.006;9.292;2023-05-10T11:50:08;0.50;;;0.20;;
50932;SDS011;36921;49.006;9.292;2023-05-10T11:52:35;3.75;;;0.40;;
50932;SDS011;36921;49.006;9.292;2023-05-10T11:55:02;0.88;;;0.40;;
50932;SDS011;36921;49.006;9.292;2023-05-10T11:57:28;1.27;;;0.43;;
50932;SDS011;36921;49.006;9.292;2023-05-10T11:59:53;2.58;;;0.35;;
50932;SDS011;36921;49.006;9.292;2023-05-10T12:02:22;1.15;;;0.45;;
50932;SDS011;36921;49.006;9.292;2023-05-10T12:04:48;6.93;;;0.50;;
50932;SDS011;36921;49.006;9.292;2023-05-10T12:07:14;1.23;;;0.40;;
50932;SDS011;36921;49.006;9.292;2023-05-10T12:09:44;0.60;;;0.50;;
50932;SDS011;36921;49.006;9.292;2023-05-10T12:12:16;3.72;;;0.50;;
50932;SDS011;36921;49.006;9.292;2023-05-10T12:14:41;0.95;;;0.50;;
50932;SDS011;36921;49.006;9.292;2023-05-10T12:17:11;2.83;;;0.55;;
50932;SDS011;36921;49.006;9.292;2023-05-10T12:19:37;2.40;;;0.40;;
50932;SDS011;36921;49.006;9.292;2023-05-10T12:22:04;0.82;;;0.57;;
50932;SDS011;36921;49.006;9.292;2023-05-10T12:24:30;2.47;;;0.50;;
50932;SDS011;36921;49.006;9.292;2023-05-10T12:26:58;0.75;;;0.40;;
50932;SDS011;36921;49.006;9.292;2023-05-10T12:29:23;1.48;;;0.40;;
50932;SDS011;36921;49.006;9.292;2023-05-10T12:31:52;1.30;;;0.70;;
50932;SDS011;36921;49.006;9.292;2023-05-10T12:34:24;2.30;;;0.55;;
50932;SDS011;36921;49.006;9.292;2023-05-10T12:36:57;0.93;;;0.50;;
50932;SDS011;36921;49.006;9.292;2023-05-10T12:39:23;3.15;;;0.63;;
50932;SDS011;36921;49.006;9.292;2023-05-10T12:41:50;6.07;;;1.17;;
50932;SDS011;36921;49.006;9.292;2023-05-10T12:44:15;2.30;;;0.80;;
50932;SDS011;36921;49.006;9.292;2023-05-10T12:46:41;6.10;;;0.88;;
50932;SDS011;36921;49.006;9.292;2023-05-10T12:49:07;3.40;;;0.90;;
50932;SDS011;36921;49.006;9.292;2023-05-10T12:51:32;6.25;;;1.10;;
50932;SDS011;36921;49.006;9.292;2023-05-10T12:53:58;3.38;;;0.70;;
50932;SDS011;36921;49.006;9.292;2023-05-10T12:56:23;2.65;;;0.90;;
50932;SDS011;36921;49.006;9.292;2023-05-10T12:58:48;1.40;;;0.60;;
50932;SDS011;36921;49.006;9.292;2023-05-10T13:01:14;4.45;;;0.50;;
50932;SDS011;36921;49.006;9.292;2023-05-10T13:03:40;1.33;;;0.55;;
50932;SDS011;36921;49.006;9.292;2023-05-10T13:06:05;0.52;;;0.40;;
50932;SDS011;36921;49.006;9.292;2023-05-10T13:08:31;1.05;;;0.45;;
50932;SDS011;36921;49.006;9.292;2023-05-10T13:10:59;2.15;;;0.65;;
50932;SDS011;36921;49.006;9.292;2023-05-10T13:13:25;0.80;;;0.40;;
50932;SDS011;36921;49.006;9.292;2023-05-10T13:15:51;1.67;;;0.35;;
50932;SDS011;36921;49.006;9.292;2023-05-10T13:18:16;1.55;;;0.57;;
50932;SDS011;36921;49.006;9.292;2023-05-10T13:20:42;4.80;;;0.60;;
50932;SDS011;36921;49.006;9.292;2023-05-10T13:23:09;5.25;;;0.80;;
50932;SDS011;36921;49.006;9.292;2023-05-10T13:25:34;0.65;;;0.30;;
50932;SDS011;36921;49.006;9.292;2023-05-10T13:28:00;1.38;;;0.40;;
50932;SDS011;36921;49.006;9.292;2023-05-10T13:30:33;2.70;;;0.35;;
50932;SDS011;36921;49.006;9.292;2023-05-10T13:32:58;3.70;;;0.50;;
50932;SDS011;36921;49.006;9.292;2023-05-10T13:35:25;2.58;;;0.50;;
50932;SDS011;36921;49.006;9.292;2023-05-10T13:37:50;1.13;;;0.30;;
50932;SDS011;36921;49.006;9.292;2023-05-10T13:40:16;1.65;;;0.30;;
50932;SDS011;36921;49.006;9.292;2023-05-10T13:42:41;2.88;;;0.43;;
50932;SDS011;36921;49.006;9.292;2023-05-10T13:45:07;3.15;;;0.68;;
50932;SDS011;36921;49.006;9.292;2023-05-10T13:47:32;1.90;;;0.60;;
50932;SDS011;36921;49.006;9.292;2023-05-10T13:49:58;0.73;;;0.40;;
50932;SDS011;36921;49.006;9.292;2023-05-10T13:52:23;2.72;;;0.38;;
50932;SDS011;36921;49.006;9.292;2023-05-10T13:54:49;1.08;;;0.30;;
50932;SDS011;36921;49.006;9.292;2023-05-10T13:57:16;2.88;;;0.50;;
50932;SDS011;36921;49.006;9.292;2023-05-10T13:59:42;2.67;;;0.55;;
50932;SDS011;36921;49.006;9.292;2023-05-10T14:02:07;1.50;;;0.30;;
50932;SDS011;36921;49.006;9.292;2023-05-10T14:04:33;2.70;;;0.55;;
50932;SDS011;36921;49.006;9.292;2023-05-10T14:07:00;3.28;;;0.60;;
50932;SDS011;36921;49.006;9.292;2023-05-10T14:09:25;4.47;;;0.50;;
50932;SDS011;36921;49.006;9.292;2023-05-10T14:11:51;1.55;;;0.50;;
50932;SDS011;36921;49.006;9.292;2023-05-10T14:14:16;1.48;;;0.40;;
50932;SDS011;36921;49.006;9.292;2023-05-10T14:16:45;1.23;;;0.40;;
50932;SDS011;36921;49.006;9.292;2023-05-10T14:19:10;2.00;;;0.50;;
50932;SDS011;36921;49.006;9.292;2023-05-10T14:21:36;3.25;;;0.50;;
50932;SDS011;36921;49.006;9.292;2023-05-10T14:24:02;5.15;;;0.50;;
50932;SDS011;36921;49.006;9.292;2023-05-10T14:26:27;0.98;;;0.50;;
50932;SDS011;36921;49.006;9.292;2023-05-10T14:28:53;0.60;;;0.22;;
50932;SDS011;36921;49.006;9.292;2023-05-10T14:31:18;1.00;;;0.20;;
50932;SDS011;36921;49.006;9.292;2023-05-10T14:33:45;1.73;;;0.40;;
50932;SDS011;36921;49.006;9.292;2023-05-10T14:36:13;2.22;;;0.50;;
50932;SDS011;36921;49.006;9.292;2023-05-10T14:38:39;2.67;;;0.40;;
50932;SDS011;36921;49.006;9.292;2023-05-10T14:41:05;2.05;;;0.40;;
50932;SDS011;36921;49.006;9.292;2023-05-10T14:43:30;5.07;;;0.35;;
50932;SDS011;36921;49.006;9.292;2023-05-10T14:45:56;4.32;;;0.50;;
50932;SDS011;36921;49.006;9.292;2023-05-10T14:48:21;1.60;;;0.50;;
50932;SDS011;36921;49.006;9.292;2023-05-10T14:50:47;1.40;;;0.50;;
50932;SDS011;36921;49.006;9.292;2023-05-10T14:53:12;1.35;;;0.32;;
50932;SDS011;36921;49.006;9.292;2023-05-10T14:55:38;0.63;;;0.30;;
50932;SDS011;36921;49.006;9.292;2023-05-10T14:58:04;1.67;;;0.35;;
50932;SDS011;36921;49.006;9.292;2023-05-10T15:00:31;5.95;;;0.50;;
50932;SDS011;36921;49.006;9.292;2023-05-10T15:02:56;0.68;;;0.30;;
50932;SDS011;36921;49.006;9.292;2023-05-10T15:05:24;0.68;;;0.35;;
50932;SDS011;36921;49.006;9.292;2023-05-10T15:07:49;2.10;;;0.43;;
50932;SDS011;36921;49.006;9.292;2023-05-10T15:10:15;0.55;;;0.30;;
50932;SDS011;36921;49.006;9.292;2023-05-10T15:12:41;3.13;;;0.50;;
50932;SDS011;36921;49.006;9.292;2023-05-10T15:15:06;1.88;;;0.30;;
50932;SDS011;36921;49.006;9.292;2023-05-10T15:17:33;2.95;;;0.50;;
50932;SDS011;36921;49.006;9.292;2023-05-10T15:19:58;0.55;;;0.30;;
50932;SDS011;36921;49.006;9.292;2023-05-10T15:22:24;3.00;;;0.90;;
50932;SDS011;36921;49.006;9.292;2023-05-10T15:24:49;2.05;;;0.60;;
50932;SDS011;36921;49.006;9.292;2023-05-10T15:27:15;3.47;;;0.70;;
50932;SDS011;36921;49.006;9.292;2023-05-10T15:29:40;2.05;;;0.90;;